Time;durP1;ratioP1;P1;durP2;ratioP2;P2;SDS_P1;SDS_P2;PMS_P1;PMS_P2;Temp;Humidity;BMP_temperature;BMP_pressure;BME280_temperature;BME280_humidity;BME280_pressure;Samples;Min_cycle;Max_cycle;Signal;HPM_P1;HPM_P2
2022/04/08 00:01:41;;;;;;;4.63;1.10;;;9.90;99.90;;;;;;5053725;28;20083;-64
2022/04/08 00:04:07;;;;;;;9.27;1.30;;;9.90;99.90;;;;;;5057276;28;20028;-64
2022/04/08 00:06:33;;;;;;;5.05;1.23;;;10.00;99.90;;;;;;5058250;28;20037;-64
2022/04/08 00:08:58;;;;;;;6.63;1.33;;;9.90;99.90;;;;;;5040284;28;20404;-64
2022/04/08 00:11:25;;;;;;;5.40;1.17;;;9.90;99.90;;;;;;5058324;28;20044;-64
2022/04/08 00:13:52;;;;;;;7.68;1.20;;;10.00;99.90;;;;;;5058397;28;20025;-64
2022/04/08 00:16:19;;;;;;;8.85;2.20;;;9.90;99.90;;;;;;5056971;28;20455;-64
2022/04/08 00:18:45;;;;;;;4.32;1.10;;;9.90;99.90;;;;;;5053717;28;20109;-64
2022/04/08 00:21:11;;;;;;;6.15;1.20;;;9.90;99.90;;;;;;5035032;28;20070;-64
2022/04/08 00:23:37;;;;;;;8.80;1.23;;;9.90;99.90;;;;;;5053066;28;20033;-63
2022/04/08 00:26:03;;;;;;;5.83;1.20;;;9.80;99.90;;;;;;5053184;28;20069;-63
2022/04/08 00:28:28;;;;;;;4.55;0.90;;;9.80;99.90;;;;;;5052928;28;20595;-64
2022/04/08 00:30:54;;;;;;;7.97;1.20;;;9.70;99.90;;;;;;5053296;28;20394;-64
2022/04/08 00:33:19;;;;;;;6.97;1.83;;;9.70;99.90;;;;;;5053237;28;20444;-64
2022/04/08 00:35:45;;;;;;;4.97;0.97;;;9.80;99.90;;;;;;5035006;28;20025;-64
2022/04/08 00:38:10;;;;;;;12.87;1.40;;;9.70;99.90;;;;;;5053072;28;20158;-64
2022/04/08 00:40:36;;;;;;;8.13;1.90;;;9.70;99.90;;;;;;5057176;28;20630;-64
2022/04/08 00:43:16;;;;;;;6.27;1.00;;;9.70;99.90;;;;;;5041421;28;20028;-65
2022/04/08 00:45:42;;;;;;;7.22;1.20;;;9.70;99.90;;;;;;5059464;28;20286;-64
2022/04/08 00:48:09;;;;;;;6.00;1.15;;;9.70;99.90;;;;;;5041410;28;20482;-64
2022/04/08 00:50:35;;;;;;;;;;;9.70;99.90;;;;;;5042041;28;20475;-64
2022/04/08 00:53:01;;;;;;;5.30;0.82;;;9.70;99.90;;;;;;5059335;28;20377;-64
2022/04/08 00:55:27;;;;;;;5.55;0.88;;;9.60;99.90;;;;;;5041424;28;20025;-64
2022/04/08 00:57:53;;;;;;;5.22;0.93;;;9.70;99.90;;;;;;5059689;28;20103;-64
2022/04/08 01:00:22;;;;;;;5.70;1.08;;;9.70;99.90;;;;;;5059647;28;20021;-64
2022/04/08 01:02:48;;;;;;;4.53;0.75;;;9.70;99.90;;;;;;5059388;28;20029;-64
2022/04/08 01:05:14;;;;;;;4.72;1.30;;;9.60;99.90;;;;;;5059186;28;20021;-64
2022/04/08 01:07:39;;;;;;;4.03;1.00;;;9.70;99.90;;;;;;5059520;28;20029;-64
2022/04/08 01:10:06;;;;;;;8.23;1.43;;;9.60;99.90;;;;;;5059630;28;20079;-64
2022/04/08 01:12:31;;;;;;;10.00;1.73;;;9.60;99.90;;;;;;5059765;28;20487;-65
2022/04/08 01:14:58;;;;;;;6.63;1.70;;;9.70;99.90;;;;;;5059361;28;20072;-65
2022/04/08 01:17:25;;;;;;;5.85;1.33;;;9.70;99.90;;;;;;5059113;28;20128;-65
2022/04/08 01:19:50;;;;;;;6.03;1.20;;;9.80;99.90;;;;;;5059346;28;20025;-65
2022/04/08 01:22:17;;;;;;;9.57;1.37;;;9.80;99.90;;;;;;5059818;28;20029;-65
2022/04/08 01:24:47;;;;;;;5.38;1.20;;;9.70;99.90;;;;;;5041217;28;20017;-64
2022/04/08 01:27:13;;;;;;;7.82;1.60;;;9.80;99.90;;;;;;5059074;28;20021;-64
2022/04/08 01:29:39;;;;;;;;;;;9.70;99.90;;;;;;5059586;28;20072;-64
2022/04/08 01:32:05;;;;;;;4.00;1.20;;;9.80;99.90;;;;;;5059112;28;20350;-64
2022/04/08 01:34:31;;;;;;;5.38;1.10;;;9.80;99.90;;;;;;5040945;28;20033;-64
2022/04/08 01:36:56;;;;;;;7.47;1.60;;;9.80;99.90;;;;;;5058825;28;20120;-63
2022/04/08 01:39:22;;;;;;;5.53;1.30;;;9.80;99.90;;;;;;5058963;28;20602;-65
2022/04/08 01:41:47;;;;;;;4.83;1.00;;;9.80;99.90;;;;;;5058809;28;20058;-64
2022/04/08 01:44:13;;;;;;;7.07;1.63;;;9.80;99.90;;;;;;5059038;28;20024;-64
2022/04/08 01:46:38;;;;;;;5.10;1.30;;;9.80;99.90;;;;;;5059225;28;20040;-64
2022/04/08 01:49:04;;;;;;;7.43;1.30;;;9.80;99.90;;;;;;5058945;28;20079;-64
2022/04/08 01:51:29;;;;;;;3.77;1.00;;;9.70;99.90;;;;;;5056519;28;20029;-64
2022/04/08 01:53:55;;;;;;;8.70;1.40;;;9.80;99.90;;;;;;5037678;28;20028;-64
2022/04/08 01:56:21;;;;;;;6.07;1.75;;;9.80;99.90;;;;;;5055476;28;20052;-64
2022/04/08 01:58:46;;;;;;;4.30;1.40;;;9.80;99.90;;;;;;5055512;28;20504;-65
2022/04/08 02:01:12;;;;;;;5.07;1.43;;;9.80;99.90;;;;;;5037654;28;20359;-63
2022/04/08 02:03:38;;;;;;;13.23;2.07;;;9.70;99.90;;;;;;5055867;28;20423;-63
2022/04/08 02:06:03;;;;;;;3.73;1.30;;;9.70;99.90;;;;;;5055249;28;20021;-64
2022/04/08 02:08:29;;;;;;;5.82;1.52;;;9.70;99.90;;;;;;5055577;28;20024;-64
2022/04/08 02:10:54;;;;;;;4.53;1.30;;;9.70;99.90;;;;;;5055307;28;20036;-64
2022/04/08 02:13:20;;;;;;;7.70;1.23;;;9.60;99.90;;;;;;5055222;28;20025;-64
2022/04/08 02:15:46;;;;;;;8.02;1.65;;;9.70;99.90;;;;;;5054961;28;20047;-64
2022/04/08 02:18:13;;;;;;;7.32;1.10;;;9.60;99.90;;;;;;5054979;28;20037;-64
2022/04/08 02:20:39;;;;;;;;;;;9.60;99.90;;;;;;5055434;28;20036;-64
2022/04/08 02:23:05;;;;;;;9.38;2.60;;;9.60;99.90;;;;;;5054809;28;19995;-64
2022/04/08 02:25:31;;;;;;;5.93;1.15;;;9.60;99.90;;;;;;5054896;28;20028;-64
2022/04/08 02:27:57;;;;;;;5.05;1.08;;;9.60;99.90;;;;;;5055156;28;20029;-64
2022/04/08 02:30:23;;;;;;;6.63;1.38;;;9.60;99.90;;;;;;5054759;28;20029;-64
2022/04/08 02:32:49;;;;;;;7.07;1.33;;;9.60;99.90;;;;;;5036729;28;20514;-64
2022/04/08 02:35:14;;;;;;;7.40;2.33;;;9.50;99.90;;;;;;5054509;28;20074;-64
2022/04/08 02:37:40;;;;;;;6.90;1.37;;;9.60;99.90;;;;;;5054727;28;20560;-65
2022/04/08 02:40:06;;;;;;;3.67;1.20;;;9.50;99.90;;;;;;5036931;28;20528;-64
2022/04/08 02:42:32;;;;;;;5.00;1.33;;;9.50;99.90;;;;;;5054502;28;20108;-63
2022/04/08 02:44:58;;;;;;;5.65;1.45;;;9.50;99.90;;;;;;5054611;28;20114;-63
2022/04/08 02:47:24;;;;;;;7.45;1.58;;;9.50;99.90;;;;;;5054520;28;20513;-64
2022/04/08 02:49:50;;;;;;;4.38;1.35;;;9.50;99.90;;;;;;5054511;28;20064;-65
2022/04/08 02:52:16;;;;;;;9.85;2.58;;;9.50;99.90;;;;;;5054520;28;20036;-64
2022/04/08 02:54:41;;;;;;;8.97;1.50;;;9.50;99.90;;;;;;5054357;28;20056;-64
2022/04/08 02:57:07;;;;;;;7.80;2.30;;;9.50;99.90;;;;;;5054521;28;20122;-64
2022/04/08 02:59:32;;;;;;;8.03;1.60;;;9.50;99.90;;;;;;5036670;28;20088;-64
2022/04/08 03:01:59;;;;;;;8.97;2.33;;;9.50;99.90;;;;;;5036554;28;20094;-63
2022/04/08 03:04:25;;;;;;;4.95;0.98;;;9.50;99.90;;;;;;5054444;28;20017;-65
2022/04/08 03:06:55;;;;;;;11.10;1.63;;;9.50;99.90;;;;;;5055732;28;20071;-64
2022/04/08 03:09:21;;;;;;;5.40;1.13;;;9.50;99.90;;;;;;5054644;28;20028;-64
2022/04/08 03:11:47;;;;;;;7.93;1.88;;;9.50;99.90;;;;;;5054399;28;20025;-64
2022/04/08 03:14:13;;;;;;;5.78;1.58;;;9.40;99.90;;;;;;5053983;28;20044;-63
2022/04/08 03:16:38;;;;;;;7.77;1.53;;;9.40;99.90;;;;;;5036341;28;20546;-64
2022/04/08 03:19:04;;;;;;;3.70;1.20;;;9.40;99.90;;;;;;5054201;28;20056;-64
2022/04/08 03:21:30;;;;;;;6.73;1.07;;;9.30;99.90;;;;;;5054183;28;20128;-64
2022/04/08 03:23:57;;;;;;;6.10;1.40;;;9.30;99.90;;;;;;5054062;28;20024;-64
2022/04/08 03:26:23;;;;;;;6.38;1.00;;;9.30;99.90;;;;;;5053924;28;20086;-64
2022/04/08 03:28:49;;;;;;;6.85;2.15;;;9.20;99.90;;;;;;5054282;28;20067;-64
2022/04/08 03:31:14;;;;;;;5.32;1.40;;;9.20;99.90;;;;;;5036097;28;20028;-63
2022/04/08 03:33:40;;;;;;;5.93;1.03;;;9.20;99.90;;;;;;5053928;28;20025;-63
2022/04/08 03:36:06;;;;;;;6.63;1.55;;;9.20;99.90;;;;;;5053501;28;20029;-62
2022/04/08 03:38:31;;;;;;;7.82;1.20;;;9.20;99.90;;;;;;5054163;28;20501;-63
2022/04/08 03:40:57;;;;;;;6.17;1.13;;;9.20;99.90;;;;;;5036157;28;20025;-63
2022/04/08 03:43:23;;;;;;;7.53;1.90;;;9.20;99.90;;;;;;5054096;28;20264;-63
2022/04/08 03:45:48;;;;;;;8.70;1.23;;;9.20;99.90;;;;;;5053595;28;20123;-64
2022/04/08 03:48:14;;;;;;;8.23;1.47;;;9.20;99.90;;;;;;5053738;28;20120;-64
2022/04/08 03:50:40;;;;;;;4.97;1.03;;;9.20;99.90;;;;;;5053654;28;20025;-66
2022/04/08 03:53:09;;;;;;;5.53;1.73;;;9.10;99.90;;;;;;5053366;28;20029;-65
2022/04/08 03:55:35;;;;;;;5.78;1.20;;;9.20;99.90;;;;;;5053029;28;20081;-65
2022/04/08 03:58:00;;;;;;;9.50;1.55;;;9.20;99.90;;;;;;5054264;28;20122;-64
2022/04/08 04:00:26;;;;;;;7.07;1.10;;;9.10;99.90;;;;;;5053588;28;20074;-65
2022/04/08 04:02:52;;;;;;;5.70;1.23;;;9.10;99.90;;;;;;5035626;28;20207;-62
2022/04/08 04:05:17;;;;;;;8.37;1.70;;;9.10;99.90;;;;;;5052959;28;20028;-65
2022/04/08 04:07:43;;;;;;;6.63;1.20;;;9.10;99.90;;;;;;5053086;28;20017;-64
2022/04/08 04:10:08;;;;;;;8.60;1.40;;;9.10;99.90;;;;;;5035084;28;20025;-64
2022/04/08 04:12:34;;;;;;;4.50;1.30;;;9.10;99.90;;;;;;5035070;28;20107;-62
2022/04/08 04:15:00;;;;;;;5.60;0.83;;;9.10;99.90;;;;;;5052510;28;20025;-66
2022/04/08 04:17:28;;;;;;;7.67;1.60;;;9.10;99.90;;;;;;5053145;28;20027;-65
2022/04/08 04:19:53;;;;;;;7.68;1.40;;;9.10;99.90;;;;;;5034937;28;20032;-66
2022/04/08 04:22:19;;;;;;;8.87;2.20;;;9.10;99.90;;;;;;5052738;28;20025;-66
2022/04/08 04:24:45;;;;;;;4.63;0.90;;;9.10;99.90;;;;;;5052969;28;20025;-64
2022/04/08 04:27:11;;;;;;;5.20;1.00;;;9.10;99.90;;;;;;5053192;28;20021;-65
2022/04/08 04:29:37;;;;;;;6.20;1.00;;;9.10;99.90;;;;;;5053057;28;20074;-65
2022/04/08 04:32:03;;;;;;;6.50;1.37;;;9.10;99.90;;;;;;5052744;28;20364;-64
2022/04/08 04:34:29;;;;;;;7.32;1.10;;;9.10;99.90;;;;;;5052899;28;20044;-64
2022/04/08 04:36:54;;;;;;;4.90;0.97;;;9.10;99.90;;;;;;5052709;28;20029;-65
2022/04/08 04:39:20;;;;;;;2.40;1.00;;;9.10;99.90;;;;;;5052965;28;20032;-66
2022/04/08 04:41:46;;;;;;;6.37;1.80;;;9.10;99.90;;;;;;5052788;28;20025;-66
2022/04/08 04:44:11;;;;;;;8.77;1.30;;;9.10;99.90;;;;;;5035177;28;20424;-66
2022/04/08 04:46:37;;;;;;;11.17;1.30;;;9.10;99.90;;;;;;5053502;28;20033;-65
2022/04/08 04:49:03;;;;;;;7.32;1.40;;;9.10;99.90;;;;;;5035086;28;20025;-66
2022/04/08 04:51:30;;;;;;;7.47;1.23;;;9.10;99.90;;;;;;5053280;28;20036;-66
2022/04/08 04:53:57;;;;;;;6.13;1.25;;;9.10;99.90;;;;;;5053082;28;20017;-65
2022/04/08 04:56:23;;;;;;;10.43;1.92;;;9.10;99.90;;;;;;5052239;28;20044;-63
2022/04/08 04:58:48;;;;;;;5.18;1.30;;;9.10;99.90;;;;;;5052618;28;20388;-64
2022/04/08 05:01:14;;;;;;;5.40;1.33;;;9.10;99.90;;;;;;5052981;28;20029;-64
2022/04/08 05:03:39;;;;;;;6.23;1.23;;;9.10;99.90;;;;;;5052652;28;20024;-64
2022/04/08 05:06:05;;;;;;;5.95;1.23;;;9.10;99.90;;;;;;5052660;28;20033;-63
2022/04/08 05:08:31;;;;;;;6.37;1.60;;;9.10;99.90;;;;;;5052592;28;20127;-63
2022/04/08 05:10:58;;;;;;;6.03;1.10;;;9.10;99.90;;;;;;5034890;28;20035;-63
2022/04/08 05:13:23;;;;;;;13.23;2.10;;;9.10;99.90;;;;;;5052347;28;20487;-64
2022/04/08 05:15:49;;;;;;;6.23;1.27;;;9.10;99.90;;;;;;5034453;28;20024;-63
2022/04/08 05:18:15;;;;;;;7.40;1.40;;;9.10;99.90;;;;;;5052463;28;20053;-63
2022/04/08 05:20:40;;;;;;;5.18;1.50;;;9.20;99.90;;;;;;5052438;28;20029;-62
2022/04/08 05:23:06;;;;;;;7.18;1.00;;;9.20;99.90;;;;;;5052696;28;20029;-63
2022/04/08 05:25:32;;;;;;;5.27;1.20;;;9.20;99.90;;;;;;5052073;28;20025;-65
2022/04/08 05:27:57;;;;;;;3.17;1.40;;;9.20;99.90;;;;;;5054868;28;20044;-65
2022/04/08 05:30:23;;;;;;;4.60;1.25;;;9.20;99.90;;;;;;5056432;28;20056;-66
2022/04/08 05:32:49;;;;;;;7.67;1.13;;;9.20;99.90;;;;;;5056231;28;20108;-65
2022/04/08 05:35:18;;;;;;;4.25;1.05;;;9.20;99.90;;;;;;5056312;28;20603;-64
2022/04/08 05:37:46;;;;;;;5.25;1.27;;;9.30;99.90;;;;;;5037784;28;20025;-66
2022/04/08 05:40:17;;;;;;;4.45;1.27;;;9.30;99.90;;;;;;5038902;28;20021;-65
2022/04/08 05:42:46;;;;;;;7.65;1.20;;;9.30;99.90;;;;;;5055917;28;20025;-63
2022/04/08 05:45:18;;;;;;;8.43;1.27;;;9.30;99.90;;;;;;5056473;28;20021;-64
2022/04/08 05:47:47;;;;;;;2.78;1.10;;;9.30;99.90;;;;;;5055975;28;20379;-64
2022/04/08 05:50:13;;;;;;;7.28;1.73;;;9.30;99.90;;;;;;5055692;28;20018;-64
2022/04/08 05:52:39;;;;;;;;;;;9.30;99.90;;;;;;5055879;28;20017;-63
2022/04/08 05:55:05;;;;;;;7.68;1.33;;;9.30;99.90;;;;;;5055617;28;19904;-64
2022/04/08 05:57:36;;;;;;;9.88;1.75;;;9.30;99.90;;;;;;5055157;28;20025;-65
2022/04/08 06:00:03;;;;;;;8.18;1.42;;;9.40;99.90;;;;;;5055450;28;20025;-63
2022/04/08 06:02:29;;;;;;;7.25;1.17;;;9.40;99.90;;;;;;5055259;28;20032;-63
2022/04/08 06:04:54;;;;;;;7.87;1.67;;;9.40;99.90;;;;;;5055188;28;20073;-64
2022/04/08 06:07:23;;;;;;;7.30;1.93;;;9.50;99.90;;;;;;5055469;28;20095;-67
2022/04/08 06:09:49;;;;;;;8.45;1.58;;;9.40;99.90;;;;;;5055394;28;20104;-64
2022/04/08 06:12:14;;;;;;;9.33;1.67;;;9.50;99.90;;;;;;5055548;28;20064;-64
2022/04/08 06:14:40;;;;;;;5.73;1.20;;;9.50;99.90;;;;;;5055271;28;20036;-62
2022/04/08 06:17:05;;;;;;;4.97;1.10;;;9.50;99.90;;;;;;5055417;28;20361;-65
2022/04/08 06:19:31;;;;;;;4.57;1.20;;;9.60;99.90;;;;;;5055748;28;20021;-62
2022/04/08 06:21:57;;;;;;;9.03;2.10;;;9.60;99.90;;;;;;5055395;28;20483;-64
2022/04/08 06:24:23;;;;;;;2.83;1.45;;;9.60;99.90;;;;;;5056381;28;20021;-64
2022/04/08 06:26:48;;;;;;;6.27;1.00;;;9.60;99.90;;;;;;5037853;28;20040;-64
2022/04/08 06:29:14;;;;;;;4.37;1.20;;;9.60;99.90;;;;;;5055055;28;20025;-64
2022/04/08 06:31:39;;;;;;;5.73;0.90;;;9.60;99.90;;;;;;5054828;28;20051;-65
2022/04/08 06:34:05;;;;;;;5.80;0.93;;;9.60;99.90;;;;;;5055275;28;20078;-63
2022/04/08 06:36:32;;;;;;;5.65;1.08;;;9.60;99.90;;;;;;5055496;28;20021;-63
2022/04/08 06:38:57;;;;;;;9.32;1.23;;;9.60;99.90;;;;;;5054259;28;20032;-59
2022/04/08 06:41:23;;;;;;;4.63;1.20;;;9.60;99.90;;;;;;5054627;28;20104;-59
2022/04/08 06:43:48;;;;;;;8.60;1.17;;;9.50;99.90;;;;;;5054979;28;20029;-58
2022/04/08 06:46:14;;;;;;;7.27;1.20;;;9.50;99.90;;;;;;5054586;28;20110;-60
2022/04/08 06:48:40;;;;;;;3.27;1.00;;;9.50;99.90;;;;;;5054476;28;20039;-61
2022/04/08 06:51:05;;;;;;;3.50;0.90;;;9.60;99.90;;;;;;5054737;28;20032;-61
2022/04/08 06:53:32;;;;;;;5.40;1.00;;;9.50;99.90;;;;;;5054369;28;20168;-63
2022/04/08 06:55:58;;;;;;;3.33;0.80;;;9.50;99.90;;;;;;5054240;28;20051;-62
2022/04/08 06:58:26;;;;;;;2.95;0.93;;;9.40;99.90;;;;;;5054815;28;20511;-61
2022/04/08 07:00:52;;;;;;;4.13;0.90;;;9.30;99.90;;;;;;5054789;28;20106;-61
2022/04/08 07:03:18;;;;;;;6.25;1.15;;;9.30;99.90;;;;;;5054614;28;20033;-60
2022/04/08 07:05:43;;;;;;;4.40;1.00;;;9.20;99.90;;;;;;5054430;28;20502;-60
2022/04/08 07:08:09;;;;;;;5.20;1.30;;;9.20;99.90;;;;;;5054982;28;20029;-57
2022/04/08 07:10:35;;;;;;;7.33;1.23;;;9.20;99.90;;;;;;5036827;28;20367;-60
2022/04/08 07:13:01;;;;;;;4.90;1.00;;;9.20;99.90;;;;;;5054600;28;20028;-56
2022/04/08 07:15:26;;;;;;;6.25;1.00;;;9.10;99.90;;;;;;5054500;28;20029;-61
2022/04/08 07:17:52;;;;;;;3.13;0.90;;;9.00;99.90;;;;;;5054197;28;20040;-63
2022/04/08 07:20:18;;;;;;;3.53;0.97;;;9.00;99.90;;;;;;5054340;28;20025;-63
2022/04/08 07:22:44;;;;;;;11.63;1.83;;;8.90;99.90;;;;;;5054539;28;20037;-61
2022/04/08 07:25:11;;;;;;;3.33;1.00;;;8.90;99.90;;;;;;5036600;28;20031;-62
2022/04/08 07:27:47;;;;;;;5.45;1.20;;;8.80;99.90;;;;;;5054208;28;20024;-61
2022/04/08 07:30:15;;;;;;;4.90;0.90;;;8.70;99.90;;;;;;5054235;28;20021;-64
2022/04/08 07:32:40;;;;;;;3.90;0.52;;;8.60;99.90;;;;;;5054549;28;20463;-61
2022/04/08 07:35:08;;;;;;;5.07;0.77;;;8.60;99.90;;;;;;5053976;28;20040;-63
2022/04/08 07:37:34;;;;;;;4.10;0.82;;;8.50;99.90;;;;;;5054047;28;20475;-64
2022/04/08 07:39:59;;;;;;;2.20;0.70;;;8.40;99.90;;;;;;5036387;28;20054;-64
2022/04/08 07:42:25;;;;;;;2.83;0.82;;;8.40;99.90;;;;;;5053900;28;20145;-65
2022/04/08 07:44:52;;;;;;;3.90;0.80;;;8.40;99.90;;;;;;5053610;28;20033;-64
2022/04/08 07:47:19;;;;;;;6.30;1.17;;;8.40;99.90;;;;;;5053879;28;20099;-62
2022/04/08 07:49:46;;;;;;;2.42;0.60;;;8.50;99.90;;;;;;5052991;28;20047;-64
2022/04/08 07:52:11;;;;;;;3.75;0.90;;;8.50;99.90;;;;;;5054231;28;20078;-62
2022/04/08 07:54:37;;;;;;;4.30;0.83;;;8.50;99.90;;;;;;5053742;28;20434;-64
2022/04/08 07:57:03;;;;;;;3.75;1.02;;;8.40;99.90;;;;;;5053450;28;20565;-60
2022/04/08 07:59:28;;;;;;;4.65;0.93;;;8.20;99.90;;;;;;5053667;28;20029;-59
2022/04/08 08:01:54;;;;;;;3.73;1.20;;;8.10;99.90;;;;;;5053359;28;20025;-60
2022/04/08 08:04:20;;;;;;;5.30;0.90;;;8.10;99.90;;;;;;5053355;28;20100;-55
2022/04/08 08:06:45;;;;;;;5.70;2.03;;;8.10;99.90;;;;;;5053566;28;20025;-59
2022/04/08 08:09:11;;;;;;;4.23;1.47;;;8.10;99.90;;;;;;5053502;28;20095;-59
2022/04/08 08:11:39;;;;;;;6.67;1.00;;;8.20;99.90;;;;;;5053895;28;20356;-63
2022/04/08 08:14:04;;;;;;;5.80;1.90;;;8.20;99.90;;;;;;5053775;28;20048;-60
2022/04/08 08:16:30;;;;;;;4.03;1.10;;;8.10;99.90;;;;;;5053655;28;20090;-63
2022/04/08 08:18:56;;;;;;;2.20;0.97;;;8.00;99.90;;;;;;5053809;28;20476;-60
2022/04/08 08:21:25;;;;;;;3.83;2.17;;;8.10;99.90;;;;;;5053327;28;20017;-61
2022/04/08 08:23:51;;;;;;;8.50;1.73;;;8.10;99.90;;;;;;5053629;28;20431;-60
2022/04/08 08:26:17;;;;;;;5.72;1.67;;;8.10;99.90;;;;;;5053538;28;20020;-61
2022/04/08 08:28:43;;;;;;;6.28;1.25;;;8.10;99.90;;;;;;5053322;28;20380;-62
2022/04/08 08:31:09;;;;;;;4.83;1.13;;;8.00;99.90;;;;;;5053360;28;20033;-61
2022/04/08 08:33:34;;;;;;;11.88;3.17;;;8.00;99.90;;;;;;5053355;28;20057;-62
2022/04/08 08:36:00;;;;;;;7.20;1.97;;;7.90;99.90;;;;;;5053389;28;20475;-62
2022/04/08 08:38:25;;;;;;;5.57;1.30;;;7.90;99.90;;;;;;5053702;28;20460;-62
2022/04/08 08:40:52;;;;;;;4.47;1.20;;;8.00;99.90;;;;;;5053512;28;20021;-57
2022/04/08 08:43:17;;;;;;;;;;;8.00;99.90;;;;;;5035926;28;20017;-59
2022/04/08 08:45:48;;;;;;;6.15;1.42;;;8.00;99.90;;;;;;5053951;28;19916;-58
2022/04/08 08:48:17;;;;;;;8.43;1.25;;;8.00;99.90;;;;;;5036182;28;20029;-61
2022/04/08 08:50:48;;;;;;;4.40;1.30;;;8.00;99.90;;;;;;5036656;28;20108;-61
2022/04/08 08:53:19;;;;;;;3.30;1.00;;;7.90;99.90;;;;;;5055453;28;20096;-60
2022/04/08 08:55:46;;;;;;;4.00;1.20;;;8.00;99.90;;;;;;5056212;28;20059;-60
2022/04/08 08:58:12;;;;;;;6.50;1.10;;;7.90;99.90;;;;;;5055084;28;20033;-61
2022/04/08 09:00:37;;;;;;;5.78;1.60;;;8.10;99.90;;;;;;5036167;28;20021;-58
2022/04/08 09:03:04;;;;;;;3.17;1.23;;;8.20;99.90;;;;;;5057221;28;20099;-57
2022/04/08 09:05:29;;;;;;;;;;;8.10;99.90;;;;;;5058283;28;20021;-61
2022/04/08 09:08:05;;;;;;;4.13;1.52;;;8.10;99.90;;;;;;5060439;28;20000;-62
2022/04/08 09:10:38;;;;;;;4.55;1.15;;;8.10;99.90;;;;;;5061545;28;20040;-61
2022/04/08 09:13:06;;;;;;;7.05;2.35;;;8.10;99.90;;;;;;5060205;28;20025;-60
2022/04/08 09:15:37;;;;;;;4.93;1.92;;;8.00;99.90;;;;;;5042609;28;20032;-63
2022/04/08 09:18:13;;;;;;;7.80;1.90;;;8.00;99.90;;;;;;5061216;28;20013;-62
2022/04/08 09:20:40;;;;;;;6.13;1.40;;;7.90;99.90;;;;;;5059634;28;20025;-62
2022/04/08 09:23:06;;;;;;;;;;;8.00;99.90;;;;;;5057636;28;20020;-60
2022/04/08 09:25:31;;;;;;;3.78;1.33;;;8.00;99.90;;;;;;5056366;28;19904;-61
2022/04/08 09:28:08;;;;;;;2.07;0.93;;;8.10;99.90;;;;;;5056320;28;20048;-60
2022/04/08 09:30:34;;;;;;;5.28;2.05;;;8.10;99.90;;;;;;5056849;28;20036;-61
2022/04/08 09:33:14;;;;;;;2.17;0.75;;;8.10;99.90;;;;;;5056639;28;20391;-62
2022/04/08 09:35:40;;;;;;;5.25;2.38;;;8.00;99.90;;;;;;5056639;28;20037;-62
2022/04/08 09:38:06;;;;;;;6.63;1.90;;;8.00;99.90;;;;;;5040340;28;20114;-62
2022/04/08 09:40:44;;;;;;;6.90;2.40;;;8.10;99.90;;;;;;5064147;28;20017;-61
2022/04/08 09:43:10;;;;;;;5.22;1.50;;;8.00;99.90;;;;;;5058783;28;20029;-60
2022/04/08 09:45:38;;;;;;;2.88;1.00;;;8.10;99.90;;;;;;5056226;28;20033;-60
2022/04/08 09:48:06;;;;;;;2.83;1.25;;;7.90;99.90;;;;;;5056538;28;20033;-63
2022/04/08 09:50:32;;;;;;;3.72;1.52;;;7.90;99.90;;;;;;5038323;28;20049;-62
2022/04/08 09:52:58;;;;;;;5.97;2.80;;;7.80;99.90;;;;;;5055945;28;20025;-64
2022/04/08 09:55:25;;;;;;;3.92;0.90;;;7.90;99.90;;;;;;5056109;28;20033;-60
2022/04/08 09:58:00;;;;;;;4.75;1.98;;;7.90;99.90;;;;;;5038028;28;20032;-64
2022/04/08 10:00:28;;;;;;;4.07;1.25;;;8.20;99.90;;;;;;5055543;28;20067;-60
2022/04/08 10:02:55;;;;;;;1.45;0.90;;;8.10;99.90;;;;;;5055716;28;20024;-61
2022/04/08 10:05:25;;;;;;;4.03;1.05;;;8.00;99.90;;;;;;5055709;28;20021;-60
2022/04/08 10:07:53;;;;;;;5.20;2.10;;;8.00;99.90;;;;;;5055731;28;20544;-60
2022/04/08 10:10:33;;;;;;;4.10;0.95;;;8.00;99.90;;;;;;5055597;28;20459;-59
2022/04/08 10:13:43;;;;;;;2.67;1.08;;;7.90;99.90;;;;;;5054976;28;20028;-59
2022/04/08 10:16:16;;;;;;;4.43;1.20;;;7.90;99.90;;;;;;5055615;28;20207;-58
2022/04/08 10:18:43;;;;;;;4.18;1.65;;;7.60;99.90;;;;;;5055550;28;20036;-58
2022/04/08 10:21:13;;;;;;;13.20;9.80;;;7.70;99.90;;;;;;5055144;28;20399;-59
2022/04/08 10:23:46;;;;;;;2.72;1.23;;;7.70;99.90;;;;;;5055871;28;20096;-59
2022/04/08 10:26:22;;;;;;;1.55;0.82;;;7.80;99.90;;;;;;5037288;28;20036;-59
2022/04/08 10:28:48;;;;;;;2.13;0.80;;;7.90;99.90;;;;;;5054906;28;20021;-60
2022/04/08 10:31:15;;;;;;;2.28;0.60;;;8.00;99.90;;;;;;5054774;28;20087;-59
2022/04/08 10:34:11;;;;;;;0.63;0.40;;;8.10;99.90;;;;;;5055161;28;20432;-59
2022/04/08 10:36:38;;;;;;;0.73;0.30;;;7.90;99.90;;;;;;4955210;29;20490;-59
2022/04/08 10:39:13;;;;;;;2.03;0.50;;;7.80;99.90;;;;;;4954742;29;20023;-61
2022/04/08 10:41:50;;;;;;;2.38;0.88;;;7.70;99.90;;;;;;4954810;29;20066;-61
2022/04/08 10:44:16;;;;;;;2.08;0.80;;;7.60;99.90;;;;;;4954718;29;20070;-61
2022/04/08 10:46:50;;;;;;;5.13;1.20;;;7.60;99.90;;;;;;4938762;29;20047;-61
2022/04/08 10:49:16;;;;;;;2.47;1.08;;;7.50;99.90;;;;;;4955289;29;20035;-60
2022/04/08 10:51:49;;;;;;;2.05;0.88;;;7.60;99.90;;;;;;4954781;29;20555;-61
2022/04/08 10:54:16;;;;;;;1.35;0.70;;;7.70;99.90;;;;;;4954780;29;20054;-61
2022/04/08 10:56:42;;;;;;;1.15;0.57;;;7.70;99.90;;;;;;4954953;29;20521;-60
2022/04/08 10:59:08;;;;;;;3.67;1.00;;;7.70;99.90;;;;;;4938562;29;20062;-60
2022/04/08 11:01:45;;;;;;;2.15;1.17;;;7.80;99.90;;;;;;4954381;29;20031;-61
2022/04/08 11:04:10;;;;;;;1.52;0.80;;;8.00;99.90;;;;;;4954432;29;20023;-61
2022/04/08 11:06:37;;;;;;;6.83;0.80;;;7.80;99.90;;;;;;4954230;29;20533;-61
2022/04/08 11:09:08;;;;;;;3.03;0.77;;;7.60;99.90;;;;;;4954209;29;20418;-60
2022/04/08 11:11:37;;;;;;;4.10;0.88;;;7.60;99.90;;;;;;4954269;29;20063;-61
2022/04/08 11:14:04;;;;;;;1.75;0.77;;;7.60;99.90;;;;;;5048981;28;20182;-60
2022/04/08 11:16:34;;;;;;;1.17;0.77;;;7.60;99.90;;;;;;5053981;28;20093;-63
2022/04/08 11:19:00;;;;;;;1.48;0.60;;;7.50;99.90;;;;;;5054298;28;20112;-65
2022/04/08 11:21:28;;;;;;;4.00;1.00;;;7.60;99.90;;;;;;5053884;28;20045;-62
2022/04/08 11:24:00;;;;;;;2.35;1.15;;;7.50;99.90;;;;;;5054003;28;20059;-63
2022/04/08 11:26:30;;;;;;;2.20;1.30;;;7.60;99.90;;;;;;5053816;28;20029;-63
2022/04/08 11:29:14;;;;;;;3.78;1.10;;;7.60;99.90;;;;;;5054238;28;20475;-63
2022/04/08 11:31:39;;;;;;;2.05;0.70;;;7.50;99.90;;;;;;5054386;28;20025;-63
2022/04/08 11:34:06;;;;;;;1.48;0.73;;;7.50;99.90;;;;;;5053779;28;20156;-63
2022/04/08 11:36:33;;;;;;;2.92;0.90;;;7.60;99.90;;;;;;5053646;28;20495;-63
2022/04/08 11:38:58;;;;;;;5.85;1.92;;;7.60;99.90;;;;;;5053775;28;20115;-63
2022/04/08 11:41:25;;;;;;;1.90;1.00;;;7.60;99.90;;;;;;5053687;28;20519;-62
2022/04/08 11:43:52;;;;;;;2.72;0.73;;;7.60;99.90;;;;;;5053640;28;20112;-64
2022/04/08 11:46:17;;;;;;;2.67;0.80;;;7.50;99.90;;;;;;5055572;28;20068;-58
2022/04/08 11:48:44;;;;;;;1.77;1.00;;;7.40;99.90;;;;;;5056761;28;20056;-58
2022/04/08 11:51:09;;;;;;;;;;;7.30;99.90;;;;;;5056739;28;20029;-58
2022/04/08 11:53:46;;;;;;;1.75;0.95;;;7.20;99.90;;;;;;5056285;28;19984;-58
2022/04/08 11:56:18;;;;;;;2.28;1.25;;;7.10;99.90;;;;;;5054216;28;20029;-57
2022/04/08 11:59:13;;;;;;;2.88;1.83;;;7.00;99.90;;;;;;5037099;28;20095;-58
2022/04/08 12:01:41;;;;;;;2.88;1.23;;;7.10;99.90;;;;;;4954549;29;20056;-57
2022/04/08 12:04:12;;;;;;;1.88;0.80;;;7.10;99.90;;;;;;4954532;29;20062;-62
2022/04/08 12:06:42;;;;;;;3.72;1.23;;;7.10;99.90;;;;;;4955274;29;20098;-59
2022/04/08 12:09:09;;;;;;;3.22;1.20;;;7.10;99.90;;;;;;4939119;29;20031;-59
2022/04/08 12:11:36;;;;;;;1.75;0.80;;;7.10;99.90;;;;;;4953883;29;20627;-60
2022/04/08 12:14:05;;;;;;;3.42;0.90;;;7.10;99.90;;;;;;4954492;29;20461;-59
2022/04/08 12:16:31;;;;;;;1.50;0.90;;;6.90;99.90;;;;;;4954901;29;20031;-60
2022/04/08 12:18:57;;;;;;;1.80;0.90;;;6.90;99.90;;;;;;4957431;29;20087;-58
2022/04/08 12:21:28;;;;;;;3.63;1.40;;;6.80;99.90;;;;;;4957853;29;20462;-61
2022/04/08 12:23:56;;;;;;;4.00;1.25;;;6.80;99.90;;;;;;4959555;29;20027;-63
2022/04/08 12:26:30;;;;;;;3.92;1.13;;;6.80;99.90;;;;;;4960953;29;20039;-61
2022/04/08 12:29:10;;;;;;;3.33;1.23;;;6.90;99.90;;;;;;4961126;29;20062;-59
2022/04/08 12:31:46;;;;;;;3.13;1.30;;;7.00;99.90;;;;;;4957197;29;20047;-58
2022/04/08 12:34:12;;;;;;;1.60;1.00;;;7.10;99.90;;;;;;4954223;29;20098;-58
2022/04/08 12:36:38;;;;;;;4.47;1.15;;;6.90;99.90;;;;;;4954451;28;20023;-59
2022/04/08 12:39:04;;;;;;;1.70;1.02;;;6.80;99.90;;;;;;5051573;28;20124;-59
2022/04/08 12:41:29;;;;;;;2.60;1.27;;;6.80;99.90;;;;;;5058890;28;20106;-60
2022/04/08 12:43:57;;;;;;;1.37;0.90;;;6.80;99.90;;;;;;5040154;28;20021;-59
2022/04/08 12:46:23;;;;;;;1.75;1.40;;;6.90;99.90;;;;;;5054791;28;20036;-57
2022/04/08 12:48:49;;;;;;;3.60;1.10;;;6.90;99.90;;;;;;5053487;28;20528;-56
2022/04/08 12:51:14;;;;;;;1.10;0.90;;;6.90;99.90;;;;;;5055037;28;20035;-55
2022/04/08 12:53:40;;;;;;;3.60;1.10;;;6.80;99.90;;;;;;5054433;28;20430;-56
2022/04/08 12:56:06;;;;;;;5.03;0.90;;;6.90;99.90;;;;;;5053222;28;20059;-61
2022/04/08 12:58:31;;;;;;;3.10;0.80;;;6.70;99.90;;;;;;5035781;28;20086;-60